sensor_id;sensor_type;location;lat;lon;timestamp;pressure;altitude;pressure_sealevel;temperature;humidity
52032;BME280;38044;45.148;39.604;2023-04-09T00:00:34;101804.66;;;10.81;79.04
52032;BME280;38044;45.148;39.604;2023-04-09T00:03:00;101777.13;;;10.58;78.19
52032;BME280;38044;45.148;39.604;2023-04-09T00:05:26;101815.41;;;10.76;77.40
52032;BME280;38044;45.148;39.604;2023-04-09T00:07:52;101800.84;;;10.72;77.09
52032;BME280;38044;45.148;39.604;2023-04-09T00:10:18;101800.25;;;10.59;76.75
52032;BME280;38044;45.148;39.604;2023-04-09T00:12:44;101722.53;;;10.15;75.91
52032;BME280;38044;45.148;39.604;2023-04-09T00:15:10;101799.78;;;10.73;75.90
52032;BME280;38044;45.148;39.604;2023-04-09T00:17:36;101801.41;;;10.74;75.65
52032;BME280;38044;45.148;39.604;2023-04-09T00:20:02;101769.28;;;10.52;75.68
52032;BME280;38044;45.148;39.604;2023-04-09T00:22:28;101805.63;;;10.59;75.38
52032;BME280;38044;45.148;39.604;2023-04-09T00:24:54;101767.88;;;10.39;75.12
52032;BME280;38044;45.148;39.604;2023-04-09T00:27:22;101690.91;;;9.80;75.62
52032;BME280;38044;45.148;39.604;2023-04-09T00:29:47;101778.66;;;10.39;75.64
52032;BME280;38044;45.148;39.604;2023-04-09T00:32:13;101798.81;;;10.47;75.61
52032;BME280;38044;45.148;39.604;2023-04-09T00:34:39;101802.88;;;10.49;76.26
52032;BME280;38044;45.148;39.604;2023-04-09T00:37:05;101814.25;;;10.62;75.69
52032;BME280;38044;45.148;39.604;2023-04-09T00:39:31;101808.06;;;10.56;75.75
52032;BME280;38044;45.148;39.604;2023-04-09T00:41:58;101711.16;;;9.98;75.76
52032;BME280;38044;45.148;39.604;2023-04-09T00:44:27;101797.19;;;10.41;75.80
52032;BME280;38044;45.148;39.604;2023-04-09T00:46:53;101679.25;;;9.69;75.71
52032;BME280;38044;45.148;39.604;2023-04-09T00:49:19;101808.75;;;10.41;75.38
52032;BME280;38044;45.148;39.604;2023-04-09T00:51:45;101819.28;;;10.48;75.60
52032;BME280;38044;45.148;39.604;2023-04-09T00:54:12;101815.53;;;10.49;75.06
52032;BME280;38044;45.148;39.604;2023-04-09T00:56:39;101807.66;;;10.37;75.22
52032;BME280;38044;45.148;39.604;2023-04-09T00:59:07;101823.84;;;10.47;75.37
52032;BME280;38044;45.148;39.604;2023-04-09T01:01:33;101747.72;;;10.04;75.04
52032;BME280;38044;45.148;39.604;2023-04-09T01:03:59;101721.56;;;9.89;75.07
52032;BME280;38044;45.148;39.604;2023-04-09T01:06:38;101791.75;;;10.35;75.34
52032;BME280;38044;45.148;39.604;2023-04-09T01:11:58;101820.66;;;10.50;75.61
52032;BME280;38044;45.148;39.604;2023-04-09T01:14:36;101810.38;;;10.42;75.99
52032;BME280;38044;45.148;39.604;2023-04-09T01:17:19;101823.03;;;10.47;75.77
52032;BME280;38044;45.148;39.604;2023-04-09T01:19:57;101826.00;;;10.45;75.88
52032;BME280;38044;45.148;39.604;2023-04-09T01:22:59;101825.47;;;10.48;76.17
52032;BME280;38044;45.148;39.604;2023-04-09T01:26:02;101818.16;;;10.44;76.39
52032;BME280;38044;45.148;39.604;2023-04-09T01:28:46;101820.63;;;10.45;75.93
52032;BME280;38044;45.148;39.604;2023-04-09T01:31:16;101708.56;;;9.71;75.96
52032;BME280;38044;45.148;39.604;2023-04-09T01:33:46;101825.69;;;10.42;76.47
52032;BME280;38044;45.148;39.604;2023-04-09T01:36:13;101827.31;;;10.43;76.55
52032;BME280;38044;45.148;39.604;2023-04-09T01:38:41;101733.63;;;9.82;76.36
52032;BME280;38044;45.148;39.604;2023-04-09T01:41:10;101839.16;;;10.47;76.76
52032;BME280;38044;45.148;39.604;2023-04-09T01:43:37;101823.25;;;10.40;76.43
52032;BME280;38044;45.148;39.604;2023-04-09T01:46:03;101826.72;;;10.35;76.40
52032;BME280;38044;45.148;39.604;2023-04-09T01:48:30;101834.25;;;10.33;76.43
52032;BME280;38044;45.148;39.604;2023-04-09T01:50:57;101818.50;;;10.20;76.39
52032;BME280;38044;45.148;39.604;2023-04-09T01:53:23;101829.81;;;10.22;76.30
52032;BME280;38044;45.148;39.604;2023-04-09T01:55:53;101764.75;;;9.83;76.76
52032;BME280;38044;45.148;39.604;2023-04-09T01:58:23;101825.22;;;10.18;76.76
52032;BME280;38044;45.148;39.604;2023-04-09T02:00:51;101691.59;;;9.33;76.88
52032;BME280;38044;45.148;39.604;2023-04-09T02:03:24;101704.00;;;9.39;76.96
52032;BME280;38044;45.148;39.604;2023-04-09T02:06:16;101838.81;;;10.38;77.30
52032;BME280;38044;45.148;39.604;2023-04-09T02:08:48;101828.16;;;10.16;77.11
52032;BME280;38044;45.148;39.604;2023-04-09T02:11:20;101846.84;;;10.28;77.35
52032;BME280;38044;45.148;39.604;2023-04-09T02:13:48;101706.91;;;9.38;77.12
52032;BME280;38044;45.148;39.604;2023-04-09T02:16:17;101842.41;;;10.17;77.23
52032;BME280;38044;45.148;39.604;2023-04-09T02:18:43;101814.34;;;10.02;76.91
52032;BME280;38044;45.148;39.604;2023-04-09T02:21:08;101827.56;;;10.09;76.93
52032;BME280;38044;45.148;39.604;2023-04-09T02:23:35;101758.66;;;9.60;77.24
52032;BME280;38044;45.148;39.604;2023-04-09T02:26:01;101762.16;;;9.61;77.18
52032;BME280;38044;45.148;39.604;2023-04-09T02:28:27;101820.19;;;9.94;77.37
52032;BME280;38044;45.148;39.604;2023-04-09T02:30:53;101860.72;;;10.20;77.54
52032;BME280;38044;45.148;39.604;2023-04-09T02:33:19;101867.19;;;10.24;77.70
52032;BME280;38044;45.148;39.604;2023-04-09T02:35:44;101871.50;;;10.25;77.63
52032;BME280;38044;45.148;39.604;2023-04-09T02:38:10;101846.41;;;10.14;77.75
52032;BME280;38044;45.148;39.604;2023-04-09T02:40:40;101871.50;;;10.25;77.97
52032;BME280;38044;45.148;39.604;2023-04-09T02:43:07;101873.72;;;10.28;78.04
52032;BME280;38044;45.148;39.604;2023-04-09T02:45:32;101868.34;;;10.28;78.12
52032;BME280;38044;45.148;39.604;2023-04-09T02:47:58;101851.00;;;10.13;77.42
52032;BME280;38044;45.148;39.604;2023-04-09T02:50:24;101798.59;;;9.84;77.28
52032;BME280;38044;45.148;39.604;2023-04-09T02:52:50;101865.06;;;10.26;77.22
52032;BME280;38044;45.148;39.604;2023-04-09T02:55:19;101849.44;;;10.23;77.08
52032;BME280;38044;45.148;39.604;2023-04-09T02:57:44;101883.44;;;10.34;76.91
52032;BME280;38044;45.148;39.604;2023-04-09T03:00:11;101861.81;;;10.24;77.01
52032;BME280;38044;45.148;39.604;2023-04-09T03:02:37;101875.88;;;10.31;76.85
52032;BME280;38044;45.148;39.604;2023-04-09T03:05:03;101859.06;;;10.19;76.84
52032;BME280;38044;45.148;39.604;2023-04-09T03:07:29;101732.94;;;9.37;76.86
52032;BME280;38044;45.148;39.604;2023-04-09T03:09:55;101879.66;;;10.35;76.73
52032;BME280;38044;45.148;39.604;2023-04-09T03:12:21;101880.78;;;10.39;76.92
52032;BME280;38044;45.148;39.604;2023-04-09T03:14:47;101881.59;;;10.40;76.53
52032;BME280;38044;45.148;39.604;2023-04-09T03:17:12;101850.56;;;10.27;76.73
52032;BME280;38044;45.148;39.604;2023-04-09T03:19:38;101710.72;;;9.42;76.70
52032;BME280;38044;45.148;39.604;2023-04-09T03:22:04;101720.44;;;9.48;76.63
52032;BME280;38044;45.148;39.604;2023-04-09T03:24:31;101860.59;;;10.36;76.42
52032;BME280;38044;45.148;39.604;2023-04-09T03:26:57;101879.28;;;10.58;76.28
52032;BME280;38044;45.148;39.604;2023-04-09T03:29:23;101857.72;;;10.48;76.00
52032;BME280;38044;45.148;39.604;2023-04-09T03:31:49;101757.28;;;9.85;76.09
52032;BME280;38044;45.148;39.604;2023-04-09T03:34:15;101762.66;;;9.90;75.91
52032;BME280;38044;45.148;39.604;2023-04-09T03:36:40;101888.53;;;10.68;76.19
52032;BME280;38044;45.148;39.604;2023-04-09T03:39:06;101846.09;;;10.37;75.93
52032;BME280;38044;45.148;39.604;2023-04-09T03:41:32;101896.06;;;10.71;75.64
52032;BME280;38044;45.148;39.604;2023-04-09T03:43:58;101853.97;;;10.49;75.49
52032;BME280;38044;45.148;39.604;2023-04-09T03:46:24;101817.81;;;10.30;75.55
52032;BME280;38044;45.148;39.604;2023-04-09T03:48:50;101755.22;;;9.97;75.54
52032;BME280;38044;45.148;39.604;2023-04-09T03:51:16;101873.53;;;10.82;75.56
52032;BME280;38044;45.148;39.604;2023-04-09T03:53:42;101858.94;;;10.73;75.25
52032;BME280;38044;45.148;39.604;2023-04-09T03:56:09;101792.00;;;10.29;75.00
52032;BME280;38044;45.148;39.604;2023-04-09T03:58:35;101851.41;;;10.70;75.05
52032;BME280;38044;45.148;39.604;2023-04-09T04:01:02;101899.19;;;11.00;74.94
52032;BME280;38044;45.148;39.604;2023-04-09T04:03:28;101903.25;;;11.02;74.23
52032;BME280;38044;45.148;39.604;2023-04-09T04:05:59;101908.66;;;11.08;74.12
52032;BME280;38044;45.148;39.604;2023-04-09T04:08:26;101908.13;;;11.11;73.97
52032;BME280;38044;45.148;39.604;2023-04-09T04:10:51;101898.47;;;11.15;73.28
52032;BME280;38044;45.148;39.604;2023-04-09T04:13:17;101759.78;;;10.34;72.95
52032;BME280;38044;45.148;39.604;2023-04-09T04:15:43;101900.47;;;11.40;72.77
52032;BME280;38044;45.148;39.604;2023-04-09T04:18:09;101899.16;;;11.47;72.63
52032;BME280;38044;45.148;39.604;2023-04-09T04:20:36;101912.66;;;11.73;71.89
52032;BME280;38044;45.148;39.604;2023-04-09T04:23:03;101880.91;;;11.75;71.67
52032;BME280;38044;45.148;39.604;2023-04-09T04:25:29;101869.88;;;11.82;70.67
52032;BME280;38044;45.148;39.604;2023-04-09T04:27:55;101906.31;;;12.15;70.40
52032;BME280;38044;45.148;39.604;2023-04-09T04:30:21;101852.94;;;12.02;70.09
52032;BME280;38044;45.148;39.604;2023-04-09T04:32:47;101922.25;;;12.62;69.12
52032;BME280;38044;45.148;39.604;2023-04-09T04:35:13;101914.38;;;12.81;68.77
52032;BME280;38044;45.148;39.604;2023-04-09T04:37:39;101911.09;;;13.05;68.24
52032;BME280;38044;45.148;39.604;2023-04-09T04:40:07;101922.16;;;13.08;67.59
52032;BME280;38044;45.148;39.604;2023-04-09T04:54:07;101789.88;;;17.90;51.72
52032;BME280;38044;45.148;39.604;2023-04-09T04:56:33;101904.78;;;17.60;53.25
52032;BME280;38044;45.148;39.604;2023-04-09T04:58:59;101932.59;;;16.87;55.11
52032;BME280;38044;45.148;39.604;2023-04-09T05:01:25;101856.31;;;15.53;56.79
52032;BME280;38044;45.148;39.604;2023-04-09T05:03:51;101911.09;;;15.50;57.82
52032;BME280;38044;45.148;39.604;2023-04-09T05:06:16;101891.97;;;15.41;58.31
52032;BME280;38044;45.148;39.604;2023-04-09T05:08:42;101909.41;;;15.11;58.53
52032;BME280;38044;45.148;39.604;2023-04-09T05:11:11;101940.00;;;15.12;59.59
52032;BME280;38044;45.148;39.604;2023-04-09T05:13:37;101932.88;;;15.21;60.01
52032;BME280;38044;45.148;39.604;2023-04-09T05:16:03;101784.47;;;15.74;57.41
52032;BME280;38044;45.148;39.604;2023-04-09T05:18:29;101901.94;;;18.68;52.18
52032;BME280;38044;45.148;39.604;2023-04-09T05:20:55;101932.97;;;19.39;49.68
52032;BME280;38044;45.148;39.604;2023-04-09T05:23:20;101922.94;;;20.09;48.28
52032;BME280;38044;45.148;39.604;2023-04-09T05:25:49;101815.88;;;19.42;48.13
52032;BME280;38044;45.148;39.604;2023-04-09T05:28:15;101918.03;;;19.27;48.27
52032;BME280;38044;45.148;39.604;2023-04-09T05:30:45;101908.16;;;18.38;50.66
52032;BME280;38044;45.148;39.604;2023-04-09T05:33:11;101826.06;;;16.63;53.01
52032;BME280;38044;45.148;39.604;2023-04-09T05:35:38;101913.84;;;16.72;54.46
52032;BME280;38044;45.148;39.604;2023-04-09T05:38:04;101944.03;;;16.38;55.34
52032;BME280;38044;45.148;39.604;2023-04-09T05:40:30;101958.56;;;15.90;56.92
52032;BME280;38044;45.148;39.604;2023-04-09T05:42:55;101952.69;;;15.40;57.69
52032;BME280;38044;45.148;39.604;2023-04-09T05:45:21;101967.50;;;15.24;57.76
52032;BME280;38044;45.148;39.604;2023-04-09T05:47:49;101965.34;;;14.97;58.51
52032;BME280;38044;45.148;39.604;2023-04-09T05:50:16;101853.97;;;13.87;59.07
52032;BME280;38044;45.148;39.604;2023-04-09T05:52:41;101850.97;;;13.54;59.49
52032;BME280;38044;45.148;39.604;2023-04-09T05:55:07;101961.56;;;13.85;60.84
52032;BME280;38044;45.148;39.604;2023-04-09T05:57:34;101977.81;;;13.80;61.62
52032;BME280;38044;45.148;39.604;2023-04-09T06:00:00;101968.94;;;13.74;61.52
52032;BME280;38044;45.148;39.604;2023-04-09T06:02:27;101918.03;;;13.37;62.24
52032;BME280;38044;45.148;39.604;2023-04-09T06:04:53;101785.53;;;12.37;62.06
52032;BME280;38044;45.148;39.604;2023-04-09T06:07:20;101855.00;;;12.81;62.67
52032;BME280;38044;45.148;39.604;2023-04-09T06:09:45;101926.44;;;13.20;63.44
52032;BME280;38044;45.148;39.604;2023-04-09T06:12:12;101930.47;;;13.22;63.40
52032;BME280;38044;45.148;39.604;2023-04-09T06:14:38;101909.09;;;13.36;63.19
52032;BME280;38044;45.148;39.604;2023-04-09T06:17:04;101975.81;;;14.01;62.82
52032;BME280;38044;45.148;39.604;2023-04-09T06:19:30;101863.47;;;13.40;62.65
52032;BME280;38044;45.148;39.604;2023-04-09T06:21:56;101913.19;;;13.83;62.44
52032;BME280;38044;45.148;39.604;2023-04-09T06:24:21;101878.97;;;13.68;62.30
52032;BME280;38044;45.148;39.604;2023-04-09T06:26:47;101941.72;;;14.39;61.51
52032;BME280;38044;45.148;39.604;2023-04-09T06:29:13;101989.50;;;15.41;60.23
52032;BME280;38044;45.148;39.604;2023-04-09T06:31:40;101971.91;;;15.87;59.15
52032;BME280;38044;45.148;39.604;2023-04-09T06:34:06;101979.09;;;15.96;58.61
52032;BME280;38044;45.148;39.604;2023-04-09T06:36:32;101993.31;;;15.88;58.55
52032;BME280;38044;45.148;39.604;2023-04-09T06:38:58;101867.47;;;15.08;58.03
52032;BME280;38044;45.148;39.604;2023-04-09T06:41:24;101878.16;;;15.19;57.88
52032;BME280;38044;45.148;39.604;2023-04-09T06:43:51;101961.59;;;15.65;58.37
52032;BME280;38044;45.148;39.604;2023-04-09T06:46:17;101998.22;;;15.86;57.65
52032;BME280;38044;45.148;39.604;2023-04-09T06:48:45;101839.41;;;14.99;58.13
52032;BME280;38044;45.148;39.604;2023-04-09T06:51:11;101956.75;;;15.62;56.52
52032;BME280;38044;45.148;39.604;2023-04-09T06:53:37;101847.63;;;15.13;55.95
52032;BME280;38044;45.148;39.604;2023-04-09T06:56:04;101961.72;;;15.97;56.54
52032;BME280;38044;45.148;39.604;2023-04-09T06:58:31;101970.38;;;16.18;56.17
52032;BME280;38044;45.148;39.604;2023-04-09T07:00:57;101988.44;;;16.61;54.79
52032;BME280;38044;45.148;39.604;2023-04-09T07:03:23;101947.97;;;16.46;54.43
52032;BME280;38044;45.148;39.604;2023-04-09T07:05:49;101996.69;;;16.88;54.54
52032;BME280;38044;45.148;39.604;2023-04-09T07:08:16;101987.75;;;17.02;54.55
52032;BME280;38044;45.148;39.604;2023-04-09T07:10:42;101954.53;;;16.77;53.33
52032;BME280;38044;45.148;39.604;2023-04-09T07:13:08;101981.09;;;17.08;52.89
52032;BME280;38044;45.148;39.604;2023-04-09T07:15:37;101927.09;;;16.74;52.79
52032;BME280;38044;45.148;39.604;2023-04-09T07:18:03;101867.66;;;16.12;54.10
52032;BME280;38044;45.148;39.604;2023-04-09T07:20:28;101999.53;;;16.97;53.87
52032;BME280;38044;45.148;39.604;2023-04-09T07:22:54;101811.13;;;15.86;53.18
52032;BME280;38044;45.148;39.604;2023-04-09T07:25:20;101987.91;;;18.02;52.91
52032;BME280;38044;45.148;39.604;2023-04-09T07:27:46;101843.94;;;19.43;49.03
52032;BME280;38044;45.148;39.604;2023-04-09T07:30:12;101953.16;;;22.04;44.67
52032;BME280;38044;45.148;39.604;2023-04-09T07:32:38;101993.47;;;23.52;42.21
52032;BME280;38044;45.148;39.604;2023-04-09T07:35:06;101970.53;;;24.69;40.89
52032;BME280;38044;45.148;39.604;2023-04-09T07:37:34;101968.06;;;25.12;38.23
52032;BME280;38044;45.148;39.604;2023-04-09T07:40:00;101992.44;;;25.80;39.46
52032;BME280;38044;45.148;39.604;2023-04-09T07:42:28;101927.66;;;25.67;36.90
52032;BME280;38044;45.148;39.604;2023-04-09T07:44:54;101873.03;;;25.50;37.38
52032;BME280;38044;45.148;39.604;2023-04-09T07:47:22;101954.31;;;26.41;36.42
52032;BME280;38044;45.148;39.604;2023-04-09T07:49:48;101873.97;;;25.96;37.44
52032;BME280;38044;45.148;39.604;2023-04-09T07:52:14;101950.69;;;26.56;35.96
52032;BME280;38044;45.148;39.604;2023-04-09T07:54:40;101872.47;;;25.99;36.65
52032;BME280;38044;45.148;39.604;2023-04-09T07:57:10;101956.31;;;26.63;35.73
52032;BME280;38044;45.148;39.604;2023-04-09T08:02:53;101894.31;;;26.77;36.10
52032;BME280;38044;45.148;39.604;2023-04-09T08:05:21;101956.56;;;26.78;35.39
52032;BME280;38044;45.148;39.604;2023-04-09T08:07:47;101960.25;;;26.62;35.38
52032;BME280;38044;45.148;39.604;2023-04-09T08:10:12;101950.84;;;26.67;36.39
52032;BME280;38044;45.148;39.604;2023-04-09T08:12:40;101842.81;;;26.15;35.82
52032;BME280;38044;45.148;39.604;2023-04-09T08:15:07;101829.31;;;26.52;36.32
52032;BME280;38044;45.148;39.604;2023-04-09T08:17:33;101952.09;;;27.42;34.41
52032;BME280;38044;45.148;39.604;2023-04-09T08:20:02;101926.44;;;26.65;34.96
52032;BME280;38044;45.148;39.604;2023-04-09T08:22:28;101911.44;;;26.01;34.95
52032;BME280;38044;45.148;39.604;2023-04-09T08:24:56;101946.22;;;26.09;35.29
52032;BME280;38044;45.148;39.604;2023-04-09T08:27:23;101934.91;;;25.56;34.75
52032;BME280;38044;45.148;39.604;2023-04-09T08:29:49;101935.97;;;25.51;35.54
52032;BME280;38044;45.148;39.604;2023-04-09T08:32:15;101942.13;;;25.45;34.76
52032;BME280;38044;45.148;39.604;2023-04-09T08:34:41;101911.56;;;25.50;35.64
52032;BME280;38044;45.148;39.604;2023-04-09T08:37:07;101928.69;;;25.78;34.27
52032;BME280;38044;45.148;39.604;2023-04-09T08:39:33;101897.03;;;25.88;34.44
52032;BME280;38044;45.148;39.604;2023-04-09T08:42:00;101822.31;;;25.51;33.24
52032;BME280;38044;45.148;39.604;2023-04-09T08:44:28;101927.56;;;25.99;33.32
52032;BME280;38044;45.148;39.604;2023-04-09T08:46:55;101927.56;;;25.44;33.55
52032;BME280;38044;45.148;39.604;2023-04-09T08:49:21;101930.59;;;25.39;35.73
52032;BME280;38044;45.148;39.604;2023-04-09T08:51:48;101793.03;;;24.53;34.73
52032;BME280;38044;45.148;39.604;2023-04-09T08:54:15;101896.81;;;25.23;34.40
52032;BME280;38044;45.148;39.604;2023-04-09T08:56:43;101922.44;;;25.62;34.08
52032;BME280;38044;45.148;39.604;2023-04-09T08:59:16;101911.69;;;26.35;34.27
52032;BME280;38044;45.148;39.604;2023-04-09T09:01:46;101822.88;;;25.60;33.45
52032;BME280;38044;45.148;39.604;2023-04-09T09:04:16;101869.78;;;25.83;34.01
52032;BME280;38044;45.148;39.604;2023-04-09T09:06:42;101819.13;;;25.68;34.77
52032;BME280;38044;45.148;39.604;2023-04-09T09:09:10;101888.66;;;25.46;34.71
52032;BME280;38044;45.148;39.604;2023-04-09T09:11:38;101914.81;;;25.36;35.07
52032;BME280;38044;45.148;39.604;2023-04-09T09:14:07;101908.47;;;25.16;36.09
52032;BME280;38044;45.148;39.604;2023-04-09T09:16:34;101881.50;;;24.74;35.23
52032;BME280;38044;45.148;39.604;2023-04-09T09:19:01;101910.38;;;24.36;36.30
52032;BME280;38044;45.148;39.604;2023-04-09T09:21:28;101914.94;;;24.60;35.95
52032;BME280;38044;45.148;39.604;2023-04-09T09:23:54;101819.94;;;24.31;35.69
52032;BME280;38044;45.148;39.604;2023-04-09T09:26:25;101897.56;;;25.39;35.83
52032;BME280;38044;45.148;39.604;2023-04-09T09:28:52;101853.88;;;25.57;35.42
52032;BME280;38044;45.148;39.604;2023-04-09T09:31:19;101897.34;;;26.25;34.82
52032;BME280;38044;45.148;39.604;2023-04-09T09:33:45;101764.53;;;24.61;33.44
52032;BME280;38044;45.148;39.604;2023-04-09T09:36:14;101873.31;;;25.64;36.21
52032;BME280;38044;45.148;39.604;2023-04-09T09:38:56;101890.28;;;26.70;34.57
52032;BME280;38044;45.148;39.604;2023-04-09T09:41:23;101815.94;;;25.27;35.08
52032;BME280;38044;45.148;39.604;2023-04-09T09:43:50;101874.50;;;25.12;35.20
52032;BME280;38044;45.148;39.604;2023-04-09T09:46:16;101889.00;;;25.25;35.07
52032;BME280;38044;45.148;39.604;2023-04-09T09:48:43;101883.88;;;25.43;36.32
52032;BME280;38044;45.148;39.604;2023-04-09T09:51:12;101860.91;;;25.15;36.26
52032;BME280;38044;45.148;39.604;2023-04-09T09:53:40;101869.84;;;25.48;36.20
52032;BME280;38044;45.148;39.604;2023-04-09T09:56:14;101856.38;;;25.62;35.71
52032;BME280;38044;45.148;39.604;2023-04-09T09:58:46;101857.81;;;25.56;34.95
52032;BME280;38044;45.148;39.604;2023-04-09T10:01:16;101800.28;;;25.51;34.96
52032;BME280;38044;45.148;39.604;2023-04-09T10:03:45;101887.63;;;26.12;36.90
52032;BME280;38044;45.148;39.604;2023-04-09T10:06:12;101885.00;;;26.39;36.33
52032;BME280;38044;45.148;39.604;2023-04-09T10:08:41;101893.59;;;25.95;36.35
52032;BME280;38044;45.148;39.604;2023-04-09T10:11:07;101862.50;;;25.75;35.43
52032;BME280;38044;45.148;39.604;2023-04-09T10:13:42;101886.06;;;25.72;34.92
52032;BME280;38044;45.148;39.604;2023-04-09T10:16:10;101844.09;;;24.54;35.90
52032;BME280;38044;45.148;39.604;2023-04-09T10:18:36;101848.44;;;23.67;37.69
52032;BME280;38044;45.148;39.604;2023-04-09T10:21:08;101891.06;;;23.24;37.68
52032;BME280;38044;45.148;39.604;2023-04-09T10:23:41;101863.41;;;22.55;38.91
52032;BME280;38044;45.148;39.604;2023-04-09T10:26:07;101843.66;;;21.50;40.14
52032;BME280;38044;45.148;39.604;2023-04-09T10:28:33;101836.88;;;20.67;41.70
52032;BME280;38044;45.148;39.604;2023-04-09T10:31:03;101882.59;;;20.23;42.14
52032;BME280;38044;45.148;39.604;2023-04-09T10:33:31;101875.59;;;19.70;43.15
52032;BME280;38044;45.148;39.604;2023-04-09T10:36:03;101875.09;;;20.11;43.21
52032;BME280;38044;45.148;39.604;2023-04-09T10:38:44;101859.44;;;20.46;41.76
52032;BME280;38044;45.148;39.604;2023-04-09T10:41:21;101870.38;;;20.38;41.08
52032;BME280;38044;45.148;39.604;2023-04-09T10:43:49;101830.50;;;19.81;42.86
52032;BME280;38044;45.148;39.604;2023-04-09T10:46:34;101835.25;;;20.66;42.09
52032;BME280;38044;45.148;39.604;2023-04-09T10:49:11;101858.88;;;21.30;41.41
52032;BME280;38044;45.148;39.604;2023-04-09T10:51:38;101860.78;;;21.59;41.68
52032;BME280;38044;45.148;39.604;2023-04-09T10:54:05;101830.47;;;21.43;40.20
52032;BME280;38044;45.148;39.604;2023-04-09T10:56:33;101862.88;;;21.32;40.39
52032;BME280;38044;45.148;39.604;2023-04-09T10:59:08;101856.53;;;21.49;40.26
52032;BME280;38044;45.148;39.604;2023-04-09T11:01:34;101740.25;;;20.72;40.99
52032;BME280;38044;45.148;39.604;2023-04-09T11:04:15;101808.56;;;21.22;39.85
52032;BME280;38044;45.148;39.604;2023-04-09T11:06:45;101839.63;;;20.67;40.48
52032;BME280;38044;45.148;39.604;2023-04-09T11:09:12;101790.00;;;20.09;40.86
52032;BME280;38044;45.148;39.604;2023-04-09T11:11:38;101702.34;;;19.46;41.75
52032;BME280;38044;45.148;39.604;2023-04-09T11:14:04;101689.38;;;19.34;42.27
52032;BME280;38044;45.148;39.604;2023-04-09T11:16:30;101818.84;;;20.28;40.65
52032;BME280;38044;45.148;39.604;2023-04-09T11:18:56;101695.56;;;19.70;42.17
52032;BME280;38044;45.148;39.604;2023-04-09T11:21:26;101824.81;;;20.68;43.66
52032;BME280;38044;45.148;39.604;2023-04-09T11:23:53;101825.75;;;20.25;43.49
52032;BME280;38044;45.148;39.604;2023-04-09T11:26:34;101828.38;;;20.04;44.71
52032;BME280;38044;45.148;39.604;2023-04-09T11:29:09;101816.88;;;19.81;44.26
52032;BME280;38044;45.148;39.604;2023-04-09T11:31:35;101815.56;;;19.18;44.87
52032;BME280;38044;45.148;39.604;2023-04-09T11:34:02;101815.22;;;18.62;45.00
52032;BME280;38044;45.148;39.604;2023-04-09T11:36:28;101811.75;;;18.39;46.22
52032;BME280;38044;45.148;39.604;2023-04-09T11:38:54;101814.59;;;18.34;45.68
52032;BME280;38044;45.148;39.604;2023-04-09T11:41:36;101781.94;;;18.34;46.32
52032;BME280;38044;45.148;39.604;2023-04-09T11:44:03;101701.53;;;17.65;45.17
52032;BME280;38044;45.148;39.604;2023-04-09T11:46:33;101812.50;;;18.62;45.47
52032;BME280;38044;45.148;39.604;2023-04-09T11:49:00;101753.19;;;18.50;44.81
52032;BME280;38044;45.148;39.604;2023-04-09T11:51:27;101722.63;;;18.71;44.33
52032;BME280;38044;45.148;39.604;2023-04-09T11:54:05;101758.63;;;19.16;44.69
52032;BME280;38044;45.148;39.604;2023-04-09T11:56:31;101799.06;;;19.49;44.29
52032;BME280;38044;45.148;39.604;2023-04-09T11:58:58;101729.13;;;19.01;44.94
52032;BME280;38044;45.148;39.604;2023-04-09T12:01:24;101793.75;;;19.52;45.19
52032;BME280;38044;45.148;39.604;2023-04-09T12:03:53;101807.56;;;19.47;42.98
52032;BME280;38044;45.148;39.604;2023-04-09T12:06:21;101700.69;;;18.67;43.11
52032;BME280;38044;45.148;39.604;2023-04-09T12:08:52;101765.50;;;19.05;44.29
52032;BME280;38044;45.148;39.604;2023-04-09T12:11:17;101703.69;;;18.57;43.61
52032;BME280;38044;45.148;39.604;2023-04-09T12:13:45;101767.13;;;18.97;43.88
52032;BME280;38044;45.148;39.604;2023-04-09T12:16:11;101782.84;;;19.00;41.87
52032;BME280;38044;45.148;39.604;2023-04-09T12:18:38;101779.28;;;19.08;42.19
52032;BME280;38044;45.148;39.604;2023-04-09T12:21:04;101751.09;;;19.04;44.34
52032;BME280;38044;45.148;39.604;2023-04-09T12:23:31;101730.88;;;19.05;44.73
52032;BME280;38044;45.148;39.604;2023-04-09T12:25:56;101759.13;;;19.27;43.09
52032;BME280;38044;45.148;39.604;2023-04-09T12:28:26;101764.06;;;19.51;43.10
52032;BME280;38044;45.148;39.604;2023-04-09T12:30:53;101759.13;;;19.44;43.12
52032;BME280;38044;45.148;39.604;2023-04-09T12:33:20;101762.13;;;19.51;42.90
52032;BME280;38044;45.148;39.604;2023-04-09T12:35:46;101727.34;;;19.31;42.55
52032;BME280;38044;45.148;39.604;2023-04-09T12:38:12;101708.44;;;19.43;43.72
52032;BME280;38044;45.148;39.604;2023-04-09T12:40:38;101713.69;;;19.48;44.58
52032;BME280;38044;45.148;39.604;2023-04-09T12:43:04;101754.63;;;19.40;44.72
52032;BME280;38044;45.148;39.604;2023-04-09T12:45:31;101760.25;;;19.43;44.55
52032;BME280;38044;45.148;39.604;2023-04-09T12:47:57;101720.31;;;18.95;44.46
52032;BME280;38044;45.148;39.604;2023-04-09T12:50:24;101769.22;;;19.09;44.78
52032;BME280;38044;45.148;39.604;2023-04-09T12:52:50;101671.84;;;18.57;45.64
52032;BME280;38044;45.148;39.604;2023-04-09T12:55:16;101668.28;;;18.48;45.80
52032;BME280;38044;45.148;39.604;2023-04-09T12:57:43;101648.06;;;18.14;45.26
52032;BME280;38044;45.148;39.604;2023-04-09T13:00:10;101578.94;;;17.44;44.97